Terminal Aerodrome Forecast
Issued by NWS Des Moines, IA

Home | Current Version | Previous Version | Text Only | Print | Product List | Glossary On
Versions: 1 2 3 4 5 6 7 8 9 10 11 12 13
000
FTUS43 KDMX 210520
TAFALO
TAF
KALO 210520Z 2106/2206 16014KT P6SM SCT250
     FM211200 16012G19KT P6SM BKN080
     FM211800 17016G25KT P6SM VCSH BKN030
     FM220100 20014KT 6SM SHRA VCTS OVC020CB
     FM220400 27010KT 5SM SHRA OVC020=

USA.gov is the U.S. government's official web portal to all federal, state and local government web resources and services.